createdAt,value
2018-07-28T00:04:10.415Z,100153.00
2018-07-28T00:09:07.139Z,100144.00
2018-07-28T00:14:00.445Z,100148.00
2018-07-28T00:18:53.911Z,100145.00
2018-07-28T00:23:47.116Z,100145.00
2018-07-28T00:28:40.414Z,100131.00
2018-07-28T00:33:33.665Z,100133.00
2018-07-28T00:38:26.929Z,100130.00
2018-07-28T00:43:20.201Z,100126.00
2018-07-28T00:48:13.463Z,100113.00
2018-07-28T00:53:07.475Z,100117.00
2018-07-28T00:58:00.749Z,100118.00
2018-07-28T01:02:54.021Z,100118.00
2018-07-28T01:07:47.349Z,100121.00
2018-07-28T01:12:40.600Z,100118.00
2018-07-28T01:17:33.849Z,100127.00
2018-07-28T01:22:27.175Z,100149.00
2018-07-28T01:27:20.477Z,100134.00
2018-07-28T01:32:13.651Z,100166.00
2018-07-28T01:37:06.782Z,100147.00
2018-07-28T01:42:00.043Z,100153.00
2018-07-28T01:46:53.295Z,100154.00
2018-07-28T01:51:46.567Z,100127.00
2018-07-28T01:56:39.875Z,100110.00
2018-07-28T02:01:33.218Z,100099.00
2018-07-28T02:06:26.496Z,100097.00
2018-07-28T02:11:19.797Z,100088.00
2018-07-28T02:16:13.059Z,100078.00
2018-07-28T02:21:06.344Z,100071.00
2018-07-28T02:25:59.626Z,100067.00
2018-07-28T02:30:53.006Z,100079.00
2018-07-28T02:35:46.321Z,100067.00
2018-07-28T02:40:39.597Z,100061.00
2018-07-28T02:45:32.852Z,100069.00
2018-07-28T02:50:26.106Z,100080.00
2018-07-28T02:55:19.457Z,100155.00
2018-07-28T03:00:15.406Z,100149.00
2018-07-28T03:05:08.731Z,100124.00
2018-07-28T03:10:02.310Z,100149.00
2018-07-28T03:14:55.637Z,100149.00
2018-07-28T03:19:48.931Z,100141.00
2018-07-28T03:24:42.180Z,100119.00
2018-07-28T03:29:35.748Z,100157.00
2018-07-28T03:34:28.989Z,100120.00
2018-07-28T03:39:22.284Z,100129.00
2018-07-28T03:44:15.479Z,100148.00
2018-07-28T03:49:08.726Z,100135.00
2018-07-28T03:54:02.019Z,100122.00
2018-07-28T03:58:55.195Z,100116.00
2018-07-28T04:03:48.482Z,100113.00
2018-07-28T04:08:41.721Z,100108.00
2018-07-28T04:13:35.016Z,100100.00
2018-07-28T04:18:28.276Z,100087.00
2018-07-28T04:23:21.424Z,100104.00
2018-07-28T04:28:14.700Z,100096.00
2018-07-28T04:33:08.016Z,100089.00
2018-07-28T04:38:01.249Z,100066.00
2018-07-28T04:42:54.519Z,100045.00
2018-07-28T04:47:47.792Z,100051.00
2018-07-28T04:52:41.046Z,100055.00
2018-07-28T04:57:34.352Z,100041.00
2018-07-28T05:02:28.300Z,100041.00
2018-07-28T05:07:21.641Z,100038.00
2018-07-28T05:12:14.845Z,100044.00
2018-07-28T05:17:08.106Z,100042.00
2018-07-28T05:22:01.330Z,100061.00
2018-07-28T05:26:54.643Z,100071.00
2018-07-28T05:31:47.850Z,100070.00
2018-07-28T05:36:41.127Z,100061.00
2018-07-28T05:41:34.400Z,100098.00
2018-07-28T05:46:27.669Z,100109.00
2018-07-28T05:51:20.941Z,100129.00
2018-07-28T05:56:14.198Z,100130.00
2018-07-28T06:01:07.611Z,100139.00
2018-07-28T06:06:00.875Z,100132.00
2018-07-28T06:10:54.265Z,100148.00
2018-07-28T06:15:47.558Z,100137.00
2018-07-28T06:20:40.797Z,100135.00
2018-07-28T06:25:34.068Z,100143.00
2018-07-28T06:30:27.348Z,100146.00
2018-07-28T06:35:20.614Z,100178.00
2018-07-28T06:40:13.896Z,100187.00
2018-07-28T06:45:07.221Z,100192.00
2018-07-28T06:50:00.479Z,100193.00
2018-07-28T06:54:54.215Z,100193.00
2018-07-28T06:59:47.361Z,100204.00
2018-07-28T07:04:40.679Z,100206.00
2018-07-28T07:09:33.883Z,100198.00
2018-07-28T07:14:27.185Z,100209.00
2018-07-28T07:19:20.590Z,100208.00
2018-07-28T07:24:13.787Z,100212.00
2018-07-28T07:29:07.080Z,100216.00
2018-07-28T07:34:00.358Z,100220.00
2018-07-28T07:38:53.610Z,100204.00
2018-07-28T07:43:46.887Z,100179.00
2018-07-28T07:48:40.153Z,100154.00
2018-07-28T07:53:33.425Z,100163.00
2018-07-28T07:58:26.680Z,100164.00
2018-07-28T08:03:19.904Z,100180.00
2018-07-28T08:08:13.170Z,100209.00
2018-07-28T08:13:06.507Z,100219.00
2018-07-28T08:17:59.698Z,100234.00
2018-07-28T08:22:52.963Z,100233.00
2018-07-28T08:27:46.174Z,100245.00
2018-07-28T08:32:39.489Z,100241.00
2018-07-28T08:37:32.722Z,100237.00
2018-07-28T08:42:26.309Z,100249.00
2018-07-28T08:47:19.645Z,100253.00
2018-07-28T08:52:14.123Z,100245.00
2018-07-28T08:57:07.369Z,100251.00
2018-07-28T09:02:01.889Z,100248.00
2018-07-28T09:06:55.059Z,100251.00
2018-07-28T09:11:48.536Z,100262.00
2018-07-28T09:16:41.781Z,100257.00
2018-07-28T09:21:35.194Z,100259.00
2018-07-28T09:26:28.712Z,100260.00
2018-07-28T09:31:22.058Z,100264.00
2018-07-28T09:36:15.311Z,100243.00
2018-07-28T09:41:08.636Z,100226.00
2018-07-28T09:46:02.425Z,100227.00
2018-07-28T09:50:55.559Z,100234.00
2018-07-28T09:55:48.795Z,100242.00
2018-07-28T10:00:47.928Z,100238.00
2018-07-28T10:05:41.182Z,100238.00
2018-07-28T10:10:34.427Z,100238.00
2018-07-28T10:15:27.562Z,100253.00
2018-07-28T10:20:20.787Z,100244.00
2018-07-28T10:25:14.040Z,100245.00
2018-07-28T10:30:07.943Z,100239.00
2018-07-28T10:35:01.044Z,100242.00
2018-07-28T10:39:55.303Z,100248.00
2018-07-28T10:44:48.751Z,100244.00
2018-07-28T10:49:41.990Z,100232.00
2018-07-28T10:54:35.246Z,100238.00
2018-07-28T10:59:28.528Z,100236.00
2018-07-28T11:04:21.760Z,100236.00
2018-07-28T11:09:15.150Z,100226.00
2018-07-28T11:14:08.391Z,100219.00
2018-07-28T11:19:01.770Z,100213.00
2018-07-28T11:23:57.860Z,100226.00
2018-07-28T11:28:51.941Z,100234.00
2018-07-28T11:34:02.333Z,100223.00
2018-07-28T11:39:06.930Z,100215.00
2018-07-28T11:44:17.416Z,100199.00
2018-07-28T11:49:10.765Z,100212.00
2018-07-28T11:54:04.052Z,100204.00
2018-07-28T11:58:57.350Z,100215.00
2018-07-28T12:03:50.712Z,100216.00
2018-07-28T12:08:43.918Z,100223.00
2018-07-28T12:13:37.212Z,100223.00
2018-07-28T12:18:30.488Z,100226.00
2018-07-28T12:23:23.798Z,100231.00
2018-07-28T12:28:17.189Z,100234.00
2018-07-28T12:33:10.435Z,100238.00
2018-07-28T12:38:03.687Z,100236.00
2018-07-28T12:42:57.039Z,100239.00
2018-07-28T12:47:50.395Z,100237.00
2018-07-28T12:52:43.647Z,100236.00
2018-07-28T12:57:36.882Z,100245.00
2018-07-28T13:02:30.740Z,100250.00
2018-07-28T13:07:25.942Z,100255.00
2018-07-28T13:12:19.220Z,100257.00
2018-07-28T13:17:12.805Z,100240.00
2018-07-28T13:22:06.345Z,100242.00
2018-07-28T13:26:59.651Z,100240.00
2018-07-28T13:31:52.970Z,100244.00
2018-07-28T13:36:46.103Z,100259.00
2018-07-28T13:41:39.389Z,100265.00
2018-07-28T13:46:32.680Z,100246.00
2018-07-28T13:51:26.012Z,100238.00
2018-07-28T13:56:19.237Z,100236.00
2018-07-28T14:01:12.558Z,100220.00
2018-07-28T14:06:07.178Z,100220.00
2018-07-28T14:11:00.457Z,100229.00
2018-07-28T14:15:53.697Z,100224.00
2018-07-28T14:20:46.958Z,100228.00
2018-07-28T14:25:40.109Z,100235.00
2018-07-28T14:30:33.480Z,100244.00
2018-07-28T14:35:26.708Z,100238.00
2018-07-28T14:40:20.732Z,100231.00
2018-07-28T14:45:13.967Z,100238.00
2018-07-28T14:50:08.886Z,100261.00
2018-07-28T14:55:02.146Z,100277.00
2018-07-28T14:59:55.321Z,100279.00
2018-07-28T15:04:48.666Z,100281.00
2018-07-28T15:09:41.937Z,100289.00
2018-07-28T15:14:35.197Z,100296.00
2018-07-28T15:19:28.443Z,100307.00
2018-07-28T15:24:22.018Z,100318.00
2018-07-28T15:29:15.239Z,100318.00
2018-07-28T15:34:09.165Z,100312.00
2018-07-28T15:39:02.595Z,100315.00
2018-07-28T15:43:55.864Z,100313.00
2018-07-28T15:48:49.117Z,100307.00
2018-07-28T15:53:42.384Z,100305.00
2018-07-28T15:58:35.665Z,100309.00
2018-07-28T16:03:28.909Z,100310.00
2018-07-28T16:08:22.047Z,100308.00
2018-07-28T16:13:15.298Z,100306.00
2018-07-28T16:18:08.528Z,100306.00
2018-07-28T16:23:01.665Z,100308.00
2018-07-28T16:27:54.909Z,100307.00
2018-07-28T16:32:48.158Z,100316.00
2018-07-28T16:37:42.270Z,100321.00
2018-07-28T16:42:35.563Z,100329.00
2018-07-28T16:47:28.782Z,100334.00
2018-07-28T16:52:22.041Z,100341.00
2018-07-28T16:57:15.280Z,100342.00
2018-07-28T17:02:08.588Z,100366.00
2018-07-28T17:07:01.919Z,100384.00
2018-07-28T17:11:55.111Z,100397.00
2018-07-28T17:16:48.328Z,100395.00
2018-07-28T17:21:41.717Z,100416.00
2018-07-28T17:26:34.901Z,100430.00
2018-07-28T17:31:28.158Z,100440.00
2018-07-28T17:36:21.317Z,100446.00
2018-07-28T17:41:14.897Z,100453.00
2018-07-28T17:46:08.155Z,100468.00
2018-07-28T17:51:01.450Z,100472.00
2018-07-28T17:55:54.697Z,100475.00
2018-07-28T18:00:48.970Z,100474.00
2018-07-28T18:05:42.302Z,100494.00
2018-07-28T18:10:35.571Z,100507.00
2018-07-28T18:15:28.790Z,100509.00
2018-07-28T18:20:22.030Z,100513.00
2018-07-28T18:25:15.513Z,100520.00
2018-07-28T18:30:08.783Z,100531.00
2018-07-28T18:35:02.034Z,100541.00
2018-07-28T18:39:55.956Z,100550.00
2018-07-28T18:44:49.236Z,100558.00
2018-07-28T18:49:42.415Z,100559.00
2018-07-28T18:54:35.565Z,100561.00
2018-07-28T18:59:28.807Z,100563.00
2018-07-28T19:04:22.055Z,100564.00
2018-07-28T19:09:20.796Z,100573.00
2018-07-28T19:14:20.567Z,100576.00
2018-07-28T19:19:16.830Z,100584.00
2018-07-28T19:24:10.094Z,100598.00
2018-07-28T19:29:08.964Z,100616.00
2018-07-28T19:34:02.209Z,100629.00
2018-07-28T19:39:06.460Z,100639.00
2018-07-28T19:44:06.480Z,100642.00
2018-07-28T19:49:02.081Z,100649.00
2018-07-28T19:53:55.345Z,100653.00
2018-07-28T19:58:48.642Z,100657.00
2018-07-28T20:03:41.868Z,100673.00
2018-07-28T20:08:35.138Z,100675.00
2018-07-28T20:13:28.406Z,100679.00
2018-07-28T20:18:21.708Z,100689.00
2018-07-28T20:23:14.849Z,100694.00
2018-07-28T20:28:08.166Z,100697.00
2018-07-28T20:33:01.424Z,100706.00
2018-07-28T20:37:54.722Z,100715.00
2018-07-28T20:42:47.978Z,100725.00
2018-07-28T20:47:41.109Z,100727.00
2018-07-28T20:52:34.498Z,100729.00
2018-07-28T20:57:27.742Z,100743.00
2018-07-28T21:02:22.628Z,100753.00
2018-07-28T21:07:15.778Z,100757.00
2018-07-28T21:12:09.134Z,100760.00
2018-07-28T21:17:02.408Z,100764.00
2018-07-28T21:21:55.667Z,100771.00
2018-07-28T21:26:48.960Z,100776.00
2018-07-28T21:31:42.328Z,100785.00
2018-07-28T21:36:35.576Z,100785.00
2018-07-28T21:41:29.708Z,100790.00
2018-07-28T21:46:22.982Z,100793.00
2018-07-28T21:51:16.260Z,100805.00
2018-07-28T21:56:09.498Z,100800.00
2018-07-28T22:01:08.488Z,100807.00
2018-07-28T22:06:01.722Z,100816.00
2018-07-28T22:10:54.980Z,100830.00
2018-07-28T22:15:48.425Z,100815.00
2018-07-28T22:20:41.716Z,100825.00
2018-07-28T22:25:34.984Z,100844.00
2018-07-28T22:30:28.505Z,100841.00
2018-07-28T22:35:21.750Z,100849.00
2018-07-28T22:40:15.662Z,100850.00
2018-07-28T22:45:09.250Z,100843.00
2018-07-28T22:50:02.549Z,100834.00
2018-07-28T22:54:55.692Z,100825.00
2018-07-28T22:59:48.968Z,100824.00
2018-07-28T23:04:42.218Z,100827.00
2018-07-28T23:09:36.895Z,100829.00
2018-07-28T23:14:31.448Z,100827.00
2018-07-28T23:19:25.760Z,100833.00
2018-07-28T23:24:20.438Z,100835.00
2018-07-28T23:29:13.750Z,100841.00
2018-07-28T23:34:07.026Z,100839.00
2018-07-28T23:39:00.314Z,100841.00
2018-07-28T23:43:53.707Z,100857.00
2018-07-28T23:48:46.977Z,100864.00
2018-07-28T23:53:40.116Z,100866.00
2018-07-28T23:58:33.350Z,100871.00
